メインページ
METAR-TAF:

METAR-TAF

空港 :

東京国際空港

東京 / 羽田国際空港, 日本

緯度: 35-33N, 経度: 139-47E, 海抜: 5m

現時点の気象観測

当レポートは27分前の05:30(UTC)に作成
の風 3kt
気温 24°C
湿度 69%
気圧 1003 hPa
視程10km以上
高度2000ftの雲はほとんどない
高度5000ftの千切れ雲あり

METAR: RJTT 240530Z 10003KT 9999 FEW020 BKN050 24/18 Q1003 TEMPO TL0700 4000 -TSRA BR

時間: 14:57 (05:57 UTC)

予報

当レポートは45分前の05:12(UTC)に作成
予報は24日の 06時(UTC)から 25日の 12時(UTC)まで有効
の風 10kt
視程10km以上
高度2000ftの雲はほとんどない
高度4000ftの雲は散在している
24日の 06時(UTC)から 24日の 07時(UTC)まで一時的に
視程: 4000m
高度1000ftの雲はほとんどない
高度2000ftの千切れ雲あり
高度2000ftの雲はほとんどない, 積乱雲.
激しい雷雨, 雨, 靄
24日の 18時(UTC)から 24日の 21時(UTC)まで一時的に
視程: 4000m
25日の 03時(UTC)から 25日の 06時(UTC)まで徐々に
の風 20kt
25日の 03時(UTC)から 25日の 09時(UTC)まで一時的に
の風 22kt、最大32ktの突風を伴う

TAF: RJTT 240512Z 2406/2512 18010KT 9999 FEW020 SCT040 TEMPO 2406/2407 4000 TSRA BR FEW010 BKN020 FEW020CB TEMPO 2418/2421 4000 BR BECMG 2503/2506 18020KT TEMPO 2503/2509 18022G32KT

4,000以上の空港の気象観測と天気予報(METAR報とTAF報)

利用可能な観測所は地図上に黄色い丸と赤い丸で示す。

丸の上にカーソルを重ねると観測所名を参照できる。

次にクリックすると気象観測と天気予報を参照できる。

マップの切り替え:黒色「×」印の緑ボタンをクリックして拡大、「-」印の緑ボタンをクリックして縮小、緑色の三角印をクリックして隣りの地図に切り替え


METAR-TAF: